Flight Track Log - Related Links

Times and Time Zones

All times are in EDT time to prevent confusion due to time zone crossing. See the UPS2774 flight status page for this flight to view local times or setup timezone preferences in your user account.

Time Position Orientation Groundspeed Altitude Reporting Facility
EDT Latitude Longitude Course Direction KTS MPH feet Rate Location/Type
Wed 04:43:37 PM 38.1710 -85.7400 292° West 26 30  Level FlightAware ADS-B
Wed 04:43:51 PM 38.1710 -85.7410 270° West 30 35 223 Level FlightAware ADS-B
Wed 04:44:18 PM 38.1710 -85.7420 270° West 26 30 227 Level FlightAware ADS-B
Wed 04:44:30 PM 38.1700 -85.7420 180° South 34 39 236 Level FlightAware ADS-B
Wed 04:44:58 PM 38.1680 -85.7410 159° South 20 23 240 Level FlightAware ADS-B
Wed 04:45:40 PM 38.1640 -85.7390 159° South 18 21 249 Level FlightAware ADS-B
Wed 04:48:00 PM 38.0667 -85.8858 270° West  Level FlightAware Approximate
Wed 04:49:00 PM 38.0241 -86.0078 234° Southwest  Level FlightAware Approximate
Wed 04:50:00 PM 37.9583 -86.1195 233° Southwest  Level FlightAware Approximate
Wed 04:51:00 PM 37.8894 -86.2273 218° Southwest  Level FlightAware Approximate
Wed 04:52:00 PM 37.7837 -86.2619 193° South  Level FlightAware Approximate
Wed 04:53:00 PM 37.6765 -86.2924 193° South  Level FlightAware Approximate
Wed 04:54:00 PM 37.5685 -86.3181 190° South  Level FlightAware Approximate
Wed 04:55:00 PM 37.4607 -86.3446 193° South  Level FlightAware Approximate
Wed 04:56:00 PM 37.3538 -86.3765 195° South  Level FlightAware Approximate
Wed 04:56:36 PM 38.2080 -85.7580 341° North 171 197 2,900  Level FlightAware ADS-B
Wed 04:57:04 PM 38.2270 -85.7740 327° Northwest 199 229 4,000 2,192 Climbing FlightAware ADS-B
Wed 04:57:28 PM 38.2490 -85.7900 330° Northwest 242 278 4,800 2,889 Climbing FlightAware ADS-B
Wed 04:57:58 PM 38.2760 -85.8180 321° Northwest 259 298 6,600 3,391 Climbing FlightAware ADS-B
Wed 04:58:14 PM 38.2830 -85.8420 290° West 274 315 7,400 3,545 Climbing FlightAware ADS-B
Wed 04:58:42 PM 38.2740 -85.8840 255° West 289 333 9,200 3,136 Climbing FlightAware ADS-B
Wed 04:58:58 PM 38.2590 -85.9050 228° Southwest 298 343 9,700 1,091 Climbing FlightAware ADS-B
Wed 04:59:26 PM 38.2260 -85.9330 214° Southwest 324 373 10,000 971 Climbing FlightAware ADS-B
Wed 05:00:06 PM 38.1730 -85.9820 216° Southwest 380 437 10,800 2,250 Climbing FlightAware ADS-B
Wed 05:00:46 PM 38.1150 -86.0370 217° Southwest 392 451 13,000 3,450 Climbing FlightAware ADS-B
Wed 05:01:26 PM 38.0570 -86.0930 217° Southwest 393 452 15,400 3,214 Climbing FlightAware ADS-B
Wed 05:02:10 PM 37.9930 -86.1530 216° Southwest 405 466 17,500 2,533 Climbing FlightAware ADS-B
Wed 05:02:56 PM 37.9220 -86.2190 216° Southwest 426 490 19,200 2,538 Climbing FlightAware ADS-B
Wed 05:03:28 PM 37.8620 -86.2530 204° Southwest 434 499 20,800 2,500 Climbing FlightAware ADS-B
Wed 05:04:08 PM 37.7810 -86.2740 192° South 450 518 22,200 2,195 Climbing FlightAware ADS-B
Wed 05:04:50 PM 37.6930 -86.2960 191° South 458 527 23,800 2,250 Climbing FlightAware ADS-B
Wed 05:05:36 PM 37.5980 -86.3210 192° South 463 533 25,500 1,953 Climbing FlightAware ADS-B
Wed 05:06:16 PM 37.5130 -86.3420 191° South 474 545 26,600 1,725 Climbing FlightAware ADS-B
Wed 05:06:56 PM 37.4260 -86.3640 191° South 481 554 27,800 1,694 Climbing FlightAware ADS-B
Wed 05:07:41 PM 37.3270 -86.3890 191° South 489 563 29,000 1,714 Climbing FlightAware ADS-B
Wed 05:08:20 PM 37.2450 -86.4100 192° South 487 560 30,200 2,000 Climbing FlightAware ADS-B
Wed 05:08:59 PM 37.1524 -86.4329 191° South 488 562 31,600 1,902 Climbing FlightAware ADS-B
Wed 05:09:42 PM 37.0590 -86.4560 191° South 483 556 32,800 848 Climbing FlightAware ADS-B
Wed 05:10:38 PM 36.9460 -86.4840 191° South 486 559 33,000 158 Climbing FlightAware ADS-B
Wed 05:10:58 PM 36.8910 -86.4983 192° South 487 560 33,000  Level FlightAware ADS-B
Wed 05:11:29 PM 36.8235 -86.5152 191° South 486 559 33,000  Level FlightAware ADS-B
Wed 05:12:01 PM 36.7519 -86.5330 191° South 484 557 33,000  Level FlightAware ADS-B
Wed 05:12:31 PM 36.6860 -86.5494 191° South 482 555 33,000 689 Level FlightAware ADS-B
Wed 05:13:02 PM 36.6208 -86.5656 191° South 471 542 33,700 1,619 Climbing FlightAware ADS-B
Wed 05:13:34 PM 36.5529 -86.5822 191° South 464 534 34,700 1,500 Climbing FlightAware ADS-B
Wed 05:14:34 PM 36.4294 -86.6128 191° South 454 522 36,000 703 Climbing FlightAware ADS-B
Wed 05:15:25 PM 36.3220 -86.6395 191° South 454 522 36,000  Level FlightAware ADS-B
Wed 05:16:12 PM 36.2245 -86.6637 191° South 463 533 36,000  Level FlightAware ADS-B
Wed 05:16:33 PM 36.1825 -86.6818 199° South 449 517 36,000  Level FlightAware ADS-B
Wed 05:16:52 PM 36.1479 -86.7045 208° Southwest 442 509 36,000  Level FlightAware ADS-B
Wed 05:17:17 PM 36.1078 -86.7410 216° Southwest 434 499 36,000  Level FlightAware ADS-B
Wed 05:17:35 PM 36.0824 -86.7720 225° Southwest 429 494 36,000 1,114 Level FlightAware ADS-B
Wed 05:18:27 PM 36.0185 -86.8706 231° Southwest 425 489 37,300 1,304 Climbing FlightAware ADS-B
Wed 05:19:07 PM 35.9700 -86.9450 231° Southwest 417 480 38,000 609 Climbing FlightAware ADS-B
Wed 05:19:36 PM 35.9365 -86.9980 232° Southwest 413 475 38,000  Level FlightAware ADS-B
Wed 05:20:33 PM 35.8675 -87.1050 232° Southwest 421 484 38,000  Level FlightAware ADS-B
Wed 05:21:13 PM 35.8200 -87.1790 232° Southwest 416 479 38,000  Level FlightAware ADS-B
Wed 05:21:59 PM 35.7610 -87.2600 228° Southwest 422 486 38,000  Level FlightAware ADS-B
Wed 05:22:35 PM 35.7130 -87.3210 226° Southwest 416 479 38,000  Level FlightAware ADS-B
Wed 05:22:49 PM 35.6934 -87.3454 225° Southwest 417 480 38,000  Level FlightAware ADS-B
Wed 05:23:20 PM 35.6512 -87.3985 226° Southwest 417 480 38,000  Level FlightAware ADS-B
Wed 05:23:55 PM 35.6031 -87.4585 225° Southwest 419 482 38,000  Level FlightAware ADS-B
Wed 05:24:37 PM 35.5470 -87.5280 225° Southwest 420 483 38,000  Level FlightAware ADS-B
Wed 05:25:17 PM 35.4940 -87.5950 226° Southwest 421 484 38,000  Level FlightAware ADS-B
Wed 05:26:01 PM 35.4330 -87.6710 225° Southwest 420 483 38,000  Level FlightAware ADS-B
Wed 05:26:43 PM 35.3760 -87.7420 225° Southwest 423 487 38,000  Level FlightAware ADS-B
Wed 05:27:55 PM 35.2750 -87.8660 225° Southwest 424 488 38,000  Level FlightAware ADS-B
Wed 05:28:27 PM 35.2310 -87.9210 226° Southwest 425 489 38,000  Level FlightAware ADS-B
Wed 05:29:17 PM 35.1680 -87.9990 225° Southwest 426 490 38,000  Level FlightAware ADS-B
Wed 05:30:02 PM 35.1050 -88.0760 225° Southwest 427 491 38,000  Level FlightAware ADS-B
Wed 05:30:44 PM 35.0522 -88.1375 225° Southwest 426 490 38,000  Level Memphis Center
Wed 05:31:44 PM 34.9706 -88.2461 227° Southwest 426 490 38,000  Level Memphis Center
Wed 05:32:44 PM 34.8867 -88.3494 225° Southwest 431 496 38,000  Level Memphis Center
Wed 05:33:44 PM 34.8028 -88.4553 226° Southwest 431 496 38,000  Level Memphis Center
Wed 05:34:44 PM 34.7336 -88.5656 233° Southwest 423 487 38,000  Level Memphis Center
Wed 05:35:44 PM 34.6622 -88.6831 234° Southwest 423 487 38,000 -50 Level Memphis Center
Wed 05:36:44 PM 34.5969 -88.8031 237° Southwest 428 493 37,900  Descending Memphis Center
Wed 05:37:44 PM 34.5172 -88.9306 233° Southwest 433 498 38,000 50 Climbing Memphis Center
Wed 05:38:44 PM 34.4347 -89.0350 226° Southwest 433 498 38,000 -50 Level Memphis Center
Wed 05:39:44 PM 34.3503 -89.1369 225° Southwest 438 504 37,900  Descending Memphis Center
Wed 05:40:44 PM 34.2617 -89.2389 224° Southwest 443 510 38,000 50 Climbing Memphis Center
Wed 05:41:44 PM 34.1686 -89.3406 222° Southwest 448 516 38,000  Level Memphis Center
Wed 05:42:44 PM 34.0794 -89.4444 224° Southwest 448 516 38,000  Level Memphis Center
Wed 05:43:44 PM 33.9967 -89.5353 222° Southwest 448 516 38,000  Level Memphis Center
Wed 05:44:44 PM 33.9075 -89.6389 224° Southwest 448 516 38,000  Level Memphis Center
Wed 05:45:44 PM 33.8183 -89.7422 224° Southwest 448 516 38,000 -50 Level Memphis Center
Wed 05:46:44 PM 33.7292 -89.8453 224° Southwest 442 509 37,900 -50 Descending Memphis Center
Wed 05:47:44 PM 33.6419 -89.9431 223° Southwest 442 509 37,900 50 Level Memphis Center
Wed 05:48:44 PM 33.5503 -90.0456 223° Southwest 449 517 38,000 50 Climbing Memphis Center
Wed 05:49:44 PM 33.4586 -90.1481 223° Southwest 449 517 38,000  Level Memphis Center
Wed 05:50:44 PM 33.3669 -90.2478 222° Southwest 449 517 38,000  Level Memphis Center
Wed 05:51:44 PM 33.2753 -90.3497 223° Southwest 449 517 38,000  Level Memphis Center
Wed 05:52:44 PM 33.1833 -90.4517 223° Southwest 449 517 38,000  Level Memphis Center
Wed 05:53:44 PM 33.0808 -90.5631 222° Southwest 454 522 38,000  Level Memphis Center
Wed 05:54:44 PM 32.9867 -90.6644 222° Southwest 454 522 38,000  Level Memphis Center
Wed 05:55:44 PM 32.8947 -90.7631 222° Southwest 454 522 38,000 -50 Level Memphis Center
Wed 05:56:44 PM 32.8003 -90.8664 223° Southwest 454 522 37,900 -50 Descending Memphis Center
Wed 05:57:44 PM 32.7081 -90.9672 223° Southwest 454 522 37,900 50 Level Memphis Center
Wed 05:58:44 PM 32.6136 -91.0700 223° Southwest 454 522 38,000 50 Climbing Memphis Center
Wed 05:59:44 PM 32.5192 -91.1678 221° Southwest 454 522 38,000  Level Memphis Center
Wed 06:00:44 PM 32.4244 -91.2728 223° Southwest 454 522 38,000  Level Memphis Center
Wed 06:01:59 PM 32.3192 -91.3842 222° Southwest 461 531 38,000  Level Houston Center
Wed 06:03:01 PM 32.2286 -91.4919 225° Southwest 462 532 38,000  Level Houston Center
Wed 06:04:03 PM 32.1217 -91.6222 226° Southwest 462 532 38,000  Level Houston Center
Wed 06:05:05 PM 32.0208 -91.7167 218° Southwest 463 533 38,000 -48 Level Houston Center
Wed 06:06:07 PM 31.9142 -91.8022 214° Southwest 464 534 37,900 -48 Descending Houston Center
Wed 06:07:09 PM 31.8039 -91.8817 211° Southwest 465 535 37,900 48 Level Houston Center
Wed 06:08:11 PM 31.6917 -91.9594 211° Southwest 468 539 38,000 48 Climbing Houston Center
Wed 06:09:13 PM 31.5817 -92.0642 219° Southwest 466 536 38,000 -41 Level Houston Center
Wed 06:15:28 PM 31.0982 -92.8596 219° Southwest 480 552 37,700 -89 Descending FlightAware ADS-B
Wed 06:15:58 PM 31.0451 -92.9082 218° Southwest 482 555 37,400 -646 Descending FlightAware ADS-B
Wed 06:16:33 PM 30.9847 -92.9628 218° Southwest 483 556 37,000 -627 Descending FlightAware ADS-B
Wed 06:17:05 PM 30.9271 -93.0149 218° Southwest 482 555 36,700 -2,028 Descending FlightAware ADS-B
Wed 06:23:39 PM 30.4487 -93.8896 238° Southwest 464 534 22,600 -2,264 Descending FlightAware ADS-B
Wed 06:24:09 PM 30.4159 -93.9526 239° Southwest 454 522 20,700 -3,600 Descending FlightAware ADS-B
Wed 06:24:39 PM 30.3838 -94.0142 239° Southwest 439 505 19,000 -3,194 Descending FlightAware ADS-B
Wed 06:25:11 PM 30.3509 -94.0756 238° Southwest 415 478 17,400 -2,935 Descending FlightAware ADS-B
Wed 06:26:11 PM 30.2928 -94.1844 239° Southwest 389 448 14,500 -2,741 Descending FlightAware ADS-B
Wed 06:26:32 PM 30.2733 -94.2201 238° Southwest 389 448 13,700 -2,182 Descending FlightAware ADS-B
Wed 06:26:44 PM 30.2624 -94.2422 240° Southwest 387 445 13,300 -2,000 Descending FlightAware ADS-B
Wed 06:26:50 PM 30.2579 -94.2529 244° Southwest 385 443 13,100 -1,333 Descending FlightAware ADS-B
Wed 06:27:20 PM 30.2365 -94.3082 246° West 349 402 12,500 -1,213 Descending FlightAware ADS-B
Wed 06:28:24 PM 30.1974 -94.4076 246° West 301 346 11,200 -1,085 Descending FlightAware ADS-B
Wed 06:28:54 PM 30.1794 -94.4502 244° Southwest 285 328 10,800 -935 Descending FlightAware ADS-B
Wed 06:29:41 PM 30.1539 -94.5131 245° Southwest 276 318 10,000 -1,065 Descending FlightAware ADS-B
Wed 06:29:56 PM 30.1457 -94.5334 245° Southwest 272 313 9,700 -1,000 Descending FlightAware ADS-B
Wed 06:30:11 PM 30.1378 -94.5530 245° Southwest 272 313 9,500 -894 Descending FlightAware ADS-B
Wed 06:30:43 PM 30.1214 -94.5940 245° Southwest 269 310 9,000 -842 Descending FlightAware ADS-B
Wed 06:31:08 PM 30.1082 -94.6274 245° Southwest 268 308 8,700 -686 Descending FlightAware ADS-B
Wed 06:31:18 PM 30.1035 -94.6398 246° West 267 307 8,600 -857 Descending FlightAware ADS-B
Wed 06:31:43 PM 30.0933 -94.6727 251° West 265 305 8,200 -333 Descending FlightAware ADS-B
Wed 06:33:06 PM 30.0590 -94.7833 250° West 264 304 8,000 -188 Descending FlightAware ADS-B
Wed 06:33:51 PM 30.0410 -94.8429 251° West 259 298 7,800 -750 Descending FlightAware ADS-B
Wed 06:34:18 PM 30.0303 -94.8791 251° West 258 297 7,100 -1,607 Descending FlightAware ADS-B
Wed 06:34:47 PM 30.0192 -94.9157 251° West 258 297 6,300 -1,500 Descending FlightAware ADS-B
Wed 06:35:10 PM 30.0103 -94.9454 251° West 254 292 5,800 -980 Descending FlightAware ADS-B
Wed 06:35:36 PM 30.0000 -94.9778 250° West 238 274 5,500 -769 Descending FlightAware ADS-B
Wed 06:35:49 PM 29.9957 -94.9932 255° West 233 268 5,300 -1,059 Descending FlightAware ADS-B
Wed 06:35:53 PM 29.9948 -94.9979 258° West 231 266 5,200 -1,000 Descending FlightAware ADS-B
Wed 06:36:01 PM 29.9939 -95.0076 265° West 229 264 5,100 -474 Descending FlightAware ADS-B
Wed 06:36:31 PM 29.9934 -95.0415 268° West 204 235 4,900 -885 Descending FlightAware ADS-B
Wed 06:37:02 PM 29.9930 -95.0751 270° West 202 232 4,200 -1,304 Descending FlightAware ADS-B
Wed 06:37:17 PM 29.9932 -95.0911 271° West 193 222 3,900 -968 Descending FlightAware ADS-B
Wed 06:37:33 PM 29.9933 -95.1073 270° West 188 216 3,700 -857 Descending FlightAware ADS-B
Wed 06:37:52 PM 29.9933 -95.1264 270° West 191 220 3,400 -1,000 Descending FlightAware ADS-B
Wed 06:38:09 PM 29.9934 -95.1435 270° West 187 215 3,100 -1,059 Descending FlightAware ADS-B
Wed 06:38:26 PM 29.9934 -95.1603 270° West 188 216 2,800 -889 Descending FlightAware ADS-B
Wed 06:39:03 PM 29.9935 -95.1945 270° West 157 181 2,300 -828 Descending FlightAware ADS-B
Wed 06:39:24 PM 29.9934 -95.2119 270° West 157 181 2,000 -769 Descending FlightAware ADS-B
Wed 06:39:42 PM 29.9935 -95.2268 270° West 158 182 1,800 -800 Descending FlightAware ADS-B
Wed 06:39:54 PM 29.9933 -95.2368 269° West 155 178 1,600 -1,043 Descending FlightAware ADS-B
Wed 06:40:05 PM 29.9933 -95.2456 270° West 155 178 1,400 -947 Descending FlightAware ADS-B
Wed 06:40:13 PM 29.9934 -95.2524 271° West 154 177 1,300 -600 Descending FlightAware ADS-B
Wed 06:40:25 PM 29.9935 -95.2623 271° West 152 175 1,200 -571 Descending FlightAware ADS-B
Wed 06:40:34 PM 29.9935 -95.2695 270° West 155 178 1,100 -750 Descending FlightAware ADS-B
Wed 06:40:49 PM 29.9935 -95.2824 270° West 159 183 900 -750 Descending FlightAware ADS-B
Wed 06:41:06 PM 29.9934 -95.2964 270° West 152 175 700 -909 Descending FlightAware ADS-B
Wed 06:41:22 PM 29.9935 -95.3092 271° West 150 173 400 -960 Descending FlightAware ADS-B
Wed 06:41:31 PM 29.9935 -95.3166 270° West 151 174 300 -667 Descending FlightAware ADS-B
Wed 06:41:40 PM 29.9935 -95.3238 270° West 158 182 200 -667 Descending FlightAware ADS-B

Login

Don't have an account? Register now (free) for customized features, flight alerts, and more!